sensor_id;sensor_type;location;lat;lon;timestamp;P1;durP1;ratioP1;P2;durP2;ratioP2
11962;SDS011;62678;52.130;5.584;2023-05-02T00:01:50;40.03;;;22.02;;
11962;SDS011;62678;52.130;5.584;2023-05-02T00:04:17;39.33;;;22.05;;
11962;SDS011;62678;52.130;5.584;2023-05-02T00:06:44;38.65;;;23.30;;
11962;SDS011;62678;52.130;5.584;2023-05-02T00:09:11;39.67;;;23.35;;
11962;SDS011;62678;52.130;5.584;2023-05-02T00:11:39;40.40;;;23.25;;
11962;SDS011;62678;52.130;5.584;2023-05-02T00:14:06;44.78;;;23.38;;
11962;SDS011;62678;52.130;5.584;2023-05-02T00:16:33;40.72;;;23.67;;
11962;SDS011;62678;52.130;5.584;2023-05-02T00:19:01;41.90;;;23.50;;
11962;SDS011;62678;52.130;5.584;2023-05-02T00:21:28;40.20;;;22.48;;
11962;SDS011;62678;52.130;5.584;2023-05-02T00:23:55;46.40;;;23.75;;
11962;SDS011;62678;52.130;5.584;2023-05-02T00:26:22;35.35;;;21.88;;
11962;SDS011;62678;52.130;5.584;2023-05-02T00:28:49;33.20;;;21.35;;
11962;SDS011;62678;52.130;5.584;2023-05-02T00:31:16;36.65;;;21.45;;
11962;SDS011;62678;52.130;5.584;2023-05-02T00:33:43;35.72;;;20.73;;
11962;SDS011;62678;52.130;5.584;2023-05-02T00:36:14;33.15;;;20.13;;
11962;SDS011;62678;52.130;5.584;2023-05-02T00:38:42;33.72;;;19.58;;
11962;SDS011;62678;52.130;5.584;2023-05-02T00:41:09;36.63;;;20.45;;
11962;SDS011;62678;52.130;5.584;2023-05-02T00:43:36;33.47;;;20.02;;
11962;SDS011;62678;52.130;5.584;2023-05-02T00:46:05;35.78;;;20.00;;
11962;SDS011;62678;52.130;5.584;2023-05-02T00:48:32;34.03;;;19.40;;
11962;SDS011;62678;52.130;5.584;2023-05-02T00:51:01;31.65;;;17.52;;
11962;SDS011;62678;52.130;5.584;2023-05-02T00:53:31;28.52;;;16.67;;
11962;SDS011;62678;52.130;5.584;2023-05-02T00:55:59;26.38;;;16.00;;
11962;SDS011;62678;52.130;5.584;2023-05-02T00:58:27;28.33;;;17.13;;
11962;SDS011;62678;52.130;5.584;2023-05-02T01:00:58;23.77;;;15.07;;
11962;SDS011;62678;52.130;5.584;2023-05-02T01:03:35;25.80;;;15.73;;
11962;SDS011;62678;52.130;5.584;2023-05-02T01:06:10;27.73;;;15.30;;
11962;SDS011;62678;52.130;5.584;2023-05-02T01:08:49;26.88;;;14.07;;
11962;SDS011;62678;52.130;5.584;2023-05-02T01:11:27;22.15;;;14.05;;
11962;SDS011;62678;52.130;5.584;2023-05-02T01:14:00;24.15;;;13.30;;
11962;SDS011;62678;52.130;5.584;2023-05-02T01:16:30;21.50;;;12.35;;
11962;SDS011;62678;52.130;5.584;2023-05-02T01:18:59;27.58;;;12.75;;
11962;SDS011;62678;52.130;5.584;2023-05-02T01:21:28;21.80;;;11.00;;
11962;SDS011;62678;52.130;5.584;2023-05-02T01:23:59;18.77;;;10.52;;
11962;SDS011;62678;52.130;5.584;2023-05-02T01:26:34;19.08;;;9.95;;
11962;SDS011;62678;52.130;5.584;2023-05-02T01:29:14;18.58;;;9.15;;
11962;SDS011;62678;52.130;5.584;2023-05-02T01:31:43;18.90;;;8.32;;
11962;SDS011;62678;52.130;5.584;2023-05-02T01:34:14;16.25;;;8.55;;
11962;SDS011;62678;52.130;5.584;2023-05-02T01:36:43;15.65;;;7.35;;
11962;SDS011;62678;52.130;5.584;2023-05-02T01:39:12;15.75;;;6.90;;
11962;SDS011;62678;52.130;5.584;2023-05-02T01:41:43;20.27;;;6.85;;
11962;SDS011;62678;52.130;5.584;2023-05-02T01:44:13;14.32;;;6.53;;
11962;SDS011;62678;52.130;5.584;2023-05-02T01:46:42;19.33;;;6.55;;
11962;SDS011;62678;52.130;5.584;2023-05-02T01:49:09;18.08;;;6.55;;
11962;SDS011;62678;52.130;5.584;2023-05-02T01:51:37;12.20;;;6.15;;
11962;SDS011;62678;52.130;5.584;2023-05-02T01:54:12;16.63;;;6.22;;
11962;SDS011;62678;52.130;5.584;2023-05-02T01:56:40;15.45;;;5.10;;
11962;SDS011;62678;52.130;5.584;2023-05-02T01:59:10;10.55;;;4.35;;
11962;SDS011;62678;52.130;5.584;2023-05-02T02:01:40;15.85;;;4.28;;
11962;SDS011;62678;52.130;5.584;2023-05-02T02:04:10;11.07;;;3.78;;
11962;SDS011;62678;52.130;5.584;2023-05-02T02:06:39;12.05;;;3.95;;
11962;SDS011;62678;52.130;5.584;2023-05-02T02:09:11;11.07;;;3.40;;
11962;SDS011;62678;52.130;5.584;2023-05-02T02:11:40;10.05;;;3.33;;
11962;SDS011;62678;52.130;5.584;2023-05-02T02:14:11;12.23;;;3.13;;
11962;SDS011;62678;52.130;5.584;2023-05-02T02:16:44;12.27;;;3.05;;
11962;SDS011;62678;52.130;5.584;2023-05-02T02:19:13;8.52;;;3.22;;
11962;SDS011;62678;52.130;5.584;2023-05-02T02:21:41;8.20;;;2.78;;
11962;SDS011;62678;52.130;5.584;2023-05-02T02:24:08;8.55;;;2.90;;
11962;SDS011;62678;52.130;5.584;2023-05-02T02:26:36;8.20;;;2.40;;
11962;SDS011;62678;52.130;5.584;2023-05-02T02:29:03;11.55;;;2.88;;
11962;SDS011;62678;52.130;5.584;2023-05-02T02:31:30;9.00;;;3.03;;
11962;SDS011;62678;52.130;5.584;2023-05-02T02:33:59;10.43;;;2.65;;
11962;SDS011;62678;52.130;5.584;2023-05-02T02:36:28;8.05;;;2.65;;
11962;SDS011;62678;52.130;5.584;2023-05-02T02:39:01;10.65;;;2.90;;
11962;SDS011;62678;52.130;5.584;2023-05-02T02:41:39;10.70;;;2.60;;
11962;SDS011;62678;52.130;5.584;2023-05-02T02:44:14;9.60;;;2.75;;
11962;SDS011;62678;52.130;5.584;2023-05-02T02:46:53;10.98;;;2.70;;
11962;SDS011;62678;52.130;5.584;2023-05-02T02:49:30;7.30;;;2.70;;
11962;SDS011;62678;52.130;5.584;2023-05-02T02:52:09;11.25;;;2.88;;
11962;SDS011;62678;52.130;5.584;2023-05-02T02:54:44;8.82;;;2.63;;
11962;SDS011;62678;52.130;5.584;2023-05-02T02:57:15;11.75;;;2.72;;
11962;SDS011;62678;52.130;5.584;2023-05-02T02:59:46;12.57;;;2.65;;
11962;SDS011;62678;52.130;5.584;2023-05-02T03:02:19;10.65;;;2.30;;
11962;SDS011;62678;52.130;5.584;2023-05-02T03:04:53;8.18;;;2.50;;
11962;SDS011;62678;52.130;5.584;2023-05-02T03:07:21;6.72;;;2.33;;
11962;SDS011;62678;52.130;5.584;2023-05-02T03:09:48;8.75;;;2.17;;
11962;SDS011;62678;52.130;5.584;2023-05-02T03:12:15;7.88;;;2.05;;
11962;SDS011;62678;52.130;5.584;2023-05-02T03:14:41;7.55;;;2.00;;
11962;SDS011;62678;52.130;5.584;2023-05-02T03:17:09;5.80;;;1.83;;
11962;SDS011;62678;52.130;5.584;2023-05-02T03:19:36;10.18;;;2.05;;
11962;SDS011;62678;52.130;5.584;2023-05-02T03:22:04;11.05;;;2.40;;
11962;SDS011;62678;52.130;5.584;2023-05-02T03:26:58;8.60;;;2.17;;
11962;SDS011;62678;52.130;5.584;2023-05-02T03:29:25;8.73;;;2.33;;
11962;SDS011;62678;52.130;5.584;2023-05-02T03:31:52;8.27;;;2.35;;
11962;SDS011;62678;52.130;5.584;2023-05-02T03:34:19;9.38;;;2.40;;
11962;SDS011;62678;52.130;5.584;2023-05-02T03:36:46;9.45;;;2.35;;
11962;SDS011;62678;52.130;5.584;2023-05-02T03:39:15;10.07;;;2.50;;
11962;SDS011;62678;52.130;5.584;2023-05-02T03:41:42;11.20;;;2.42;;
11962;SDS011;62678;52.130;5.584;2023-05-02T03:44:08;9.07;;;2.35;;
11962;SDS011;62678;52.130;5.584;2023-05-02T03:46:35;9.30;;;2.10;;
11962;SDS011;62678;52.130;5.584;2023-05-02T03:49:02;9.23;;;2.75;;
11962;SDS011;62678;52.130;5.584;2023-05-02T03:51:29;5.90;;;2.20;;
11962;SDS011;62678;52.130;5.584;2023-05-02T03:53:57;8.93;;;2.60;;
11962;SDS011;62678;52.130;5.584;2023-05-02T03:56:27;9.52;;;2.70;;
11962;SDS011;62678;52.130;5.584;2023-05-02T03:58:55;7.57;;;2.72;;
11962;SDS011;62678;52.130;5.584;2023-05-02T04:01:21;13.48;;;2.70;;
11962;SDS011;62678;52.130;5.584;2023-05-02T04:03:49;7.70;;;2.47;;
11962;SDS011;62678;52.130;5.584;2023-05-02T04:06:17;8.13;;;2.35;;
11962;SDS011;62678;52.130;5.584;2023-05-02T04:08:44;8.10;;;1.95;;
11962;SDS011;62678;52.130;5.584;2023-05-02T04:11:10;9.85;;;2.45;;
11962;SDS011;62678;52.130;5.584;2023-05-02T04:13:39;6.88;;;2.33;;
11962;SDS011;62678;52.130;5.584;2023-05-02T04:16:06;7.35;;;1.95;;
11962;SDS011;62678;52.130;5.584;2023-05-02T04:18:33;10.80;;;2.05;;
11962;SDS011;62678;52.130;5.584;2023-05-02T04:21:00;5.53;;;1.67;;
11962;SDS011;62678;52.130;5.584;2023-05-02T04:23:27;7.10;;;1.75;;
11962;SDS011;62678;52.130;5.584;2023-05-02T04:25:54;11.85;;;2.30;;
11962;SDS011;62678;52.130;5.584;2023-05-02T04:28:21;5.30;;;2.00;;
11962;SDS011;62678;52.130;5.584;2023-05-02T04:30:49;9.73;;;2.38;;
11962;SDS011;62678;52.130;5.584;2023-05-02T04:33:16;10.57;;;2.42;;
11962;SDS011;62678;52.130;5.584;2023-05-02T04:35:44;9.57;;;2.03;;
11962;SDS011;62678;52.130;5.584;2023-05-02T04:38:11;8.80;;;2.17;;
11962;SDS011;62678;52.130;5.584;2023-05-02T04:40:37;11.65;;;2.88;;
11962;SDS011;62678;52.130;5.584;2023-05-02T04:43:04;8.13;;;2.75;;
11962;SDS011;62678;52.130;5.584;2023-05-02T04:45:31;9.30;;;2.33;;
11962;SDS011;62678;52.130;5.584;2023-05-02T04:48:01;11.13;;;2.67;;
11962;SDS011;62678;52.130;5.584;2023-05-02T04:50:28;8.27;;;2.25;;
11962;SDS011;62678;52.130;5.584;2023-05-02T04:52:56;9.40;;;2.50;;
11962;SDS011;62678;52.130;5.584;2023-05-02T04:55:23;14.48;;;2.50;;
11962;SDS011;62678;52.130;5.584;2023-05-02T04:57:50;13.05;;;2.40;;
11962;SDS011;62678;52.130;5.584;2023-05-02T05:00:16;10.20;;;2.70;;
11962;SDS011;62678;52.130;5.584;2023-05-02T05:02:43;13.02;;;3.45;;
11962;SDS011;62678;52.130;5.584;2023-05-02T05:05:11;14.00;;;3.22;;
11962;SDS011;62678;52.130;5.584;2023-05-02T05:07:38;12.55;;;2.90;;
11962;SDS011;62678;52.130;5.584;2023-05-02T05:10:05;12.57;;;3.25;;
11962;SDS011;62678;52.130;5.584;2023-05-02T05:12:35;12.43;;;3.20;;
11962;SDS011;62678;52.130;5.584;2023-05-02T05:15:02;13.02;;;3.10;;
11962;SDS011;62678;52.130;5.584;2023-05-02T05:17:29;10.93;;;2.70;;
11962;SDS011;62678;52.130;5.584;2023-05-02T05:19:56;13.77;;;3.30;;
11962;SDS011;62678;52.130;5.584;2023-05-02T05:22:24;15.13;;;3.47;;
11962;SDS011;62678;52.130;5.584;2023-05-02T05:24:51;17.55;;;4.07;;
11962;SDS011;62678;52.130;5.584;2023-05-02T05:27:18;17.45;;;3.47;;
11962;SDS011;62678;52.130;5.584;2023-05-02T05:29:46;12.95;;;3.33;;
11962;SDS011;62678;52.130;5.584;2023-05-02T05:32:12;16.92;;;3.67;;
11962;SDS011;62678;52.130;5.584;2023-05-02T05:34:39;16.85;;;3.97;;
11962;SDS011;62678;52.130;5.584;2023-05-02T05:37:06;16.90;;;4.13;;
11962;SDS011;62678;52.130;5.584;2023-05-02T05:39:34;10.13;;;3.60;;
11962;SDS011;62678;52.130;5.584;2023-05-02T05:42:02;15.20;;;3.72;;
11962;SDS011;62678;52.130;5.584;2023-05-02T05:44:30;11.50;;;3.47;;
11962;SDS011;62678;52.130;5.584;2023-05-02T05:46:57;18.77;;;4.43;;
11962;SDS011;62678;52.130;5.584;2023-05-02T05:49:24;15.18;;;3.60;;
11962;SDS011;62678;52.130;5.584;2023-05-02T05:51:51;14.80;;;3.15;;
11962;SDS011;62678;52.130;5.584;2023-05-02T05:54:18;19.77;;;4.20;;
11962;SDS011;62678;52.130;5.584;2023-05-02T05:56:46;13.88;;;3.60;;
11962;SDS011;62678;52.130;5.584;2023-05-02T05:59:13;19.48;;;3.45;;
11962;SDS011;62678;52.130;5.584;2023-05-02T06:01:40;14.93;;;3.92;;
11962;SDS011;62678;52.130;5.584;2023-05-02T06:04:07;14.48;;;3.33;;
11962;SDS011;62678;52.130;5.584;2023-05-02T06:06:34;12.23;;;2.92;;
11962;SDS011;62678;52.130;5.584;2023-05-02T06:09:01;10.75;;;2.67;;
11962;SDS011;62678;52.130;5.584;2023-05-02T06:11:28;11.52;;;3.28;;
11962;SDS011;62678;52.130;5.584;2023-05-02T06:13:56;18.15;;;3.10;;
11962;SDS011;62678;52.130;5.584;2023-05-02T06:16:23;10.52;;;2.70;;
11962;SDS011;62678;52.130;5.584;2023-05-02T06:18:50;11.23;;;2.58;;
11962;SDS011;62678;52.130;5.584;2023-05-02T06:21:17;13.20;;;2.40;;
11962;SDS011;62678;52.130;5.584;2023-05-02T06:23:44;16.58;;;3.05;;
11962;SDS011;62678;52.130;5.584;2023-05-02T06:26:11;8.98;;;2.60;;
11962;SDS011;62678;52.130;5.584;2023-05-02T06:28:39;11.90;;;2.67;;
11962;SDS011;62678;52.130;5.584;2023-05-02T06:31:07;14.15;;;3.08;;
11962;SDS011;62678;52.130;5.584;2023-05-02T06:33:35;6.13;;;2.20;;
11962;SDS011;62678;52.130;5.584;2023-05-02T06:36:02;10.00;;;2.47;;
11962;SDS011;62678;52.130;5.584;2023-05-02T06:38:29;8.85;;;2.35;;
11962;SDS011;62678;52.130;5.584;2023-05-02T06:40:56;13.35;;;2.60;;
11962;SDS011;62678;52.130;5.584;2023-05-02T06:43:22;9.30;;;2.58;;
11962;SDS011;62678;52.130;5.584;2023-05-02T06:45:51;11.65;;;2.72;;
11962;SDS011;62678;52.130;5.584;2023-05-02T06:48:20;6.85;;;2.30;;
11962;SDS011;62678;52.130;5.584;2023-05-02T06:50:47;16.00;;;2.60;;
11962;SDS011;62678;52.130;5.584;2023-05-02T06:53:14;7.82;;;2.78;;
11962;SDS011;62678;52.130;5.584;2023-05-02T06:55:41;14.57;;;3.03;;
11962;SDS011;62678;52.130;5.584;2023-05-02T06:58:09;14.57;;;2.38;;
11962;SDS011;62678;52.130;5.584;2023-05-02T07:00:36;10.40;;;2.60;;
11962;SDS011;62678;52.130;5.584;2023-05-02T07:03:03;11.90;;;2.60;;
11962;SDS011;62678;52.130;5.584;2023-05-02T07:05:31;12.25;;;2.78;;
11962;SDS011;62678;52.130;5.584;2023-05-02T07:07:58;11.73;;;2.95;;
11962;SDS011;62678;52.130;5.584;2023-05-02T07:10:25;15.88;;;2.92;;
11962;SDS011;62678;52.130;5.584;2023-05-02T07:12:52;11.65;;;3.08;;
11962;SDS011;62678;52.130;5.584;2023-05-02T07:15:19;10.30;;;2.72;;
11962;SDS011;62678;52.130;5.584;2023-05-02T07:17:45;13.38;;;2.83;;
11962;SDS011;62678;52.130;5.584;2023-05-02T07:20:13;17.55;;;3.38;;
11962;SDS011;62678;52.130;5.584;2023-05-02T07:22:42;12.40;;;2.65;;
11962;SDS011;62678;52.130;5.584;2023-05-02T07:25:09;13.95;;;3.05;;
11962;SDS011;62678;52.130;5.584;2023-05-02T07:27:36;8.43;;;2.30;;
11962;SDS011;62678;52.130;5.584;2023-05-02T07:30:03;11.02;;;2.47;;
11962;SDS011;62678;52.130;5.584;2023-05-02T07:32:30;8.32;;;2.08;;
11962;SDS011;62678;52.130;5.584;2023-05-02T07:34:57;9.18;;;2.50;;
11962;SDS011;62678;52.130;5.584;2023-05-02T07:37:24;11.98;;;2.25;;
11962;SDS011;62678;52.130;5.584;2023-05-02T07:39:52;7.70;;;2.85;;
11962;SDS011;62678;52.130;5.584;2023-05-02T07:42:19;7.88;;;2.20;;
11962;SDS011;62678;52.130;5.584;2023-05-02T07:44:46;5.57;;;1.85;;
11962;SDS011;62678;52.130;5.584;2023-05-02T07:47:13;8.95;;;2.58;;
11962;SDS011;62678;52.130;5.584;2023-05-02T07:49:39;7.60;;;2.38;;
11962;SDS011;62678;52.130;5.584;2023-05-02T07:52:06;8.13;;;1.98;;
11962;SDS011;62678;52.130;5.584;2023-05-02T07:54:33;6.90;;;1.75;;
11962;SDS011;62678;52.130;5.584;2023-05-02T07:57:02;11.88;;;2.25;;
11962;SDS011;62678;52.130;5.584;2023-05-02T07:59:32;7.70;;;2.15;;
11962;SDS011;62678;52.130;5.584;2023-05-02T08:01:59;9.60;;;2.28;;
11962;SDS011;62678;52.130;5.584;2023-05-02T08:04:27;8.55;;;2.30;;
11962;SDS011;62678;52.130;5.584;2023-05-02T08:06:53;7.85;;;2.00;;
11962;SDS011;62678;52.130;5.584;2023-05-02T08:09:20;7.35;;;2.10;;
11962;SDS011;62678;52.130;5.584;2023-05-02T08:11:48;11.57;;;2.28;;
11962;SDS011;62678;52.130;5.584;2023-05-02T08:14:16;5.47;;;1.90;;
11962;SDS011;62678;52.130;5.584;2023-05-02T08:16:43;10.10;;;2.33;;
11962;SDS011;62678;52.130;5.584;2023-05-02T08:19:10;5.22;;;1.80;;
11962;SDS011;62678;52.130;5.584;2023-05-02T08:21:36;12.52;;;2.30;;
11962;SDS011;62678;52.130;5.584;2023-05-02T08:24:03;6.05;;;1.98;;
11962;SDS011;62678;52.130;5.584;2023-05-02T08:26:30;7.70;;;1.98;;
11962;SDS011;62678;52.130;5.584;2023-05-02T08:28:57;5.78;;;2.10;;
11962;SDS011;62678;52.130;5.584;2023-05-02T08:31:25;5.10;;;1.70;;
11962;SDS011;62678;52.130;5.584;2023-05-02T08:33:52;9.73;;;2.35;;
11962;SDS011;62678;52.130;5.584;2023-05-02T08:36:19;7.60;;;2.17;;
11962;SDS011;62678;52.130;5.584;2023-05-02T08:38:46;6.55;;;2.78;;
11962;SDS011;62678;52.130;5.584;2023-05-02T08:41:13;7.15;;;1.83;;
11962;SDS011;62678;52.130;5.584;2023-05-02T08:43:41;7.22;;;1.70;;
11962;SDS011;62678;52.130;5.584;2023-05-02T08:46:09;6.43;;;1.55;;
11962;SDS011;62678;52.130;5.584;2023-05-02T08:48:38;7.50;;;1.98;;
11962;SDS011;62678;52.130;5.584;2023-05-02T08:51:07;5.78;;;1.58;;
11962;SDS011;62678;52.130;5.584;2023-05-02T08:53:35;5.72;;;1.30;;
11962;SDS011;62678;52.130;5.584;2023-05-02T08:56:03;8.93;;;1.73;;
11962;SDS011;62678;52.130;5.584;2023-05-02T08:58:31;3.92;;;1.65;;
11962;SDS011;62678;52.130;5.584;2023-05-02T09:00:59;5.68;;;1.48;;
11962;SDS011;62678;52.130;5.584;2023-05-02T09:03:29;6.85;;;1.48;;
11962;SDS011;62678;52.130;5.584;2023-05-02T09:06:04;7.43;;;1.63;;
11962;SDS011;62678;52.130;5.584;2023-05-02T09:08:32;4.63;;;1.45;;
11962;SDS011;62678;52.130;5.584;2023-05-02T09:11:00;5.40;;;1.50;;
11962;SDS011;62678;52.130;5.584;2023-05-02T09:13:31;5.10;;;1.75;;
11962;SDS011;62678;52.130;5.584;2023-05-02T09:16:01;4.68;;;1.52;;
11962;SDS011;62678;52.130;5.584;2023-05-02T09:18:30;6.03;;;1.67;;
11962;SDS011;62678;52.130;5.584;2023-05-02T09:20:58;4.22;;;1.45;;
11962;SDS011;62678;52.130;5.584;2023-05-02T09:23:34;5.13;;;1.42;;
11962;SDS011;62678;52.130;5.584;2023-05-02T09:26:12;4.90;;;1.77;;
11962;SDS011;62678;52.130;5.584;2023-05-02T09:28:41;7.43;;;1.80;;
11962;SDS011;62678;52.130;5.584;2023-05-02T09:31:09;5.13;;;1.77;;
11962;SDS011;62678;52.130;5.584;2023-05-02T09:33:38;5.95;;;1.45;;
11962;SDS011;62678;52.130;5.584;2023-05-02T09:36:06;4.88;;;1.73;;
11962;SDS011;62678;52.130;5.584;2023-05-02T09:38:36;5.32;;;1.77;;
11962;SDS011;62678;52.130;5.584;2023-05-02T09:41:03;5.35;;;1.80;;
11962;SDS011;62678;52.130;5.584;2023-05-02T09:43:30;4.65;;;1.67;;
11962;SDS011;62678;52.130;5.584;2023-05-02T09:45:58;7.50;;;1.70;;
11962;SDS011;62678;52.130;5.584;2023-05-02T09:48:26;5.05;;;1.80;;
11962;SDS011;62678;52.130;5.584;2023-05-02T09:50:57;7.70;;;1.50;;
11962;SDS011;62678;52.130;5.584;2023-05-02T09:53:25;6.28;;;1.60;;
11962;SDS011;62678;52.130;5.584;2023-05-02T09:56:01;5.75;;;1.77;;
11962;SDS011;62678;52.130;5.584;2023-05-02T09:58:31;9.77;;;2.20;;
11962;SDS011;62678;52.130;5.584;2023-05-02T10:00:58;11.93;;;2.08;;
11962;SDS011;62678;52.130;5.584;2023-05-02T10:03:25;6.15;;;1.77;;
11962;SDS011;62678;52.130;5.584;2023-05-02T10:05:53;8.90;;;1.90;;
11962;SDS011;62678;52.130;5.584;2023-05-02T10:08:21;6.28;;;2.17;;
11962;SDS011;62678;52.130;5.584;2023-05-02T10:10:53;8.65;;;2.22;;
11962;SDS011;62678;52.130;5.584;2023-05-02T10:13:22;12.82;;;4.20;;
11962;SDS011;62678;52.130;5.584;2023-05-02T10:15:57;8.57;;;2.10;;
11962;SDS011;62678;52.130;5.584;2023-05-02T10:18:26;7.70;;;1.83;;
11962;SDS011;62678;52.130;5.584;2023-05-02T10:20:57;8.63;;;2.10;;
11962;SDS011;62678;52.130;5.584;2023-05-02T10:23:26;9.63;;;2.13;;
11962;SDS011;62678;52.130;5.584;2023-05-02T10:25:54;5.88;;;1.85;;
11962;SDS011;62678;52.130;5.584;2023-05-02T10:28:23;6.30;;;1.75;;
11962;SDS011;62678;52.130;5.584;2023-05-02T10:30:51;6.68;;;1.92;;
11962;SDS011;62678;52.130;5.584;2023-05-02T10:33:19;4.03;;;1.83;;
11962;SDS011;62678;52.130;5.584;2023-05-02T10:35:47;7.25;;;1.77;;
11962;SDS011;62678;52.130;5.584;2023-05-02T10:38:15;8.07;;;2.03;;
11962;SDS011;62678;52.130;5.584;2023-05-02T10:40:47;4.20;;;1.83;;
11962;SDS011;62678;52.130;5.584;2023-05-02T10:43:20;6.20;;;1.90;;
11962;SDS011;62678;52.130;5.584;2023-05-02T10:45:50;7.28;;;2.20;;
11962;SDS011;62678;52.130;5.584;2023-05-02T10:48:19;7.22;;;1.80;;
11962;SDS011;62678;52.130;5.584;2023-05-02T10:50:48;8.98;;;2.20;;
11962;SDS011;62678;52.130;5.584;2023-05-02T10:53:28;6.93;;;1.80;;
11962;SDS011;62678;52.130;5.584;2023-05-02T10:56:13;8.40;;;2.03;;
11962;SDS011;62678;52.130;5.584;2023-05-02T10:58:41;3.97;;;1.63;;
11962;SDS011;62678;52.130;5.584;2023-05-02T11:04:02;6.60;;;2.40;;
11962;SDS011;62678;52.130;5.584;2023-05-02T11:06:30;11.25;;;2.92;;
11962;SDS011;62678;52.130;5.584;2023-05-02T11:11:57;10.38;;;2.47;;
11962;SDS011;62678;52.130;5.584;2023-05-02T11:14:41;10.05;;;2.13;;
11962;SDS011;62678;52.130;5.584;2023-05-02T11:17:16;7.63;;;1.90;;
11962;SDS011;62678;52.130;5.584;2023-05-02T11:22:55;8.38;;;2.03;;
11962;SDS011;62678;52.130;5.584;2023-05-02T11:25:46;7.78;;;2.30;;
11962;SDS011;62678;52.130;5.584;2023-05-02T11:34:31;12.40;;;2.42;;
11962;SDS011;62678;52.130;5.584;2023-05-02T11:37:09;8.75;;;2.50;;
11962;SDS011;62678;52.130;5.584;2023-05-02T11:39:37;4.40;;;2.03;;
11962;SDS011;62678;52.130;5.584;2023-05-02T11:42:04;9.18;;;2.45;;
11962;SDS011;62678;52.130;5.584;2023-05-02T11:44:31;7.70;;;2.50;;
11962;SDS011;62678;52.130;5.584;2023-05-02T11:46:58;8.35;;;2.50;;
11962;SDS011;62678;52.130;5.584;2023-05-02T11:49:28;8.25;;;2.50;;
11962;SDS011;62678;52.130;5.584;2023-05-02T11:51:57;9.77;;;2.60;;
11962;SDS011;62678;52.130;5.584;2023-05-02T11:54:24;9.63;;;2.83;;
11962;SDS011;62678;52.130;5.584;2023-05-02T11:56:51;10.02;;;2.53;;
11962;SDS011;62678;52.130;5.584;2023-05-02T11:59:18;8.15;;;3.00;;
11962;SDS011;62678;52.130;5.584;2023-05-02T12:01:46;9.98;;;3.05;;
11962;SDS011;62678;52.130;5.584;2023-05-02T12:04:14;5.80;;;2.47;;
11962;SDS011;62678;52.130;5.584;2023-05-02T12:06:56;9.52;;;3.22;;
11962;SDS011;62678;52.130;5.584;2023-05-02T12:09:23;14.88;;;3.38;;
11962;SDS011;62678;52.130;5.584;2023-05-02T12:11:50;7.07;;;2.58;;
11962;SDS011;62678;52.130;5.584;2023-05-02T12:14:25;11.02;;;2.80;;
11962;SDS011;62678;52.130;5.584;2023-05-02T12:16:52;9.30;;;2.72;;
11962;SDS011;62678;52.130;5.584;2023-05-02T12:19:20;7.20;;;2.80;;
11962;SDS011;62678;52.130;5.584;2023-05-02T12:21:47;6.60;;;2.70;;
11962;SDS011;62678;52.130;5.584;2023-05-02T12:24:16;8.13;;;2.80;;
11962;SDS011;62678;52.130;5.584;2023-05-02T12:26:43;7.40;;;2.50;;
11962;SDS011;62678;52.130;5.584;2023-05-02T12:29:10;11.90;;;2.25;;
11962;SDS011;62678;52.130;5.584;2023-05-02T12:31:36;9.60;;;2.55;;
11962;SDS011;62678;52.130;5.584;2023-05-02T12:34:03;9.65;;;3.00;;
11962;SDS011;62678;52.130;5.584;2023-05-02T12:36:30;9.95;;;2.83;;
11962;SDS011;62678;52.130;5.584;2023-05-02T12:38:58;8.88;;;2.95;;
11962;SDS011;62678;52.130;5.584;2023-05-02T12:41:31;9.20;;;2.53;;
11962;SDS011;62678;52.130;5.584;2023-05-02T12:43:58;8.13;;;2.55;;
11962;SDS011;62678;52.130;5.584;2023-05-02T12:46:26;8.02;;;2.65;;
11962;SDS011;62678;52.130;5.584;2023-05-02T12:49:00;9.80;;;2.60;;
11962;SDS011;62678;52.130;5.584;2023-05-02T12:51:27;6.45;;;2.28;;
11962;SDS011;62678;52.130;5.584;2023-05-02T12:53:55;12.13;;;2.40;;
11962;SDS011;62678;52.130;5.584;2023-05-02T12:56:22;7.53;;;2.55;;
11962;SDS011;62678;52.130;5.584;2023-05-02T12:58:53;9.68;;;2.20;;
11962;SDS011;62678;52.130;5.584;2023-05-02T13:01:20;5.00;;;2.28;;
11962;SDS011;62678;52.130;5.584;2023-05-02T13:03:49;5.63;;;2.45;;
11962;SDS011;62678;52.130;5.584;2023-05-02T13:06:16;7.47;;;2.50;;
11962;SDS011;62678;52.130;5.584;2023-05-02T13:08:43;5.47;;;2.30;;
11962;SDS011;62678;52.130;5.584;2023-05-02T13:11:09;8.40;;;2.55;;
11962;SDS011;62678;52.130;5.584;2023-05-02T13:13:37;8.75;;;2.65;;
11962;SDS011;62678;52.130;5.584;2023-05-02T13:16:05;8.60;;;2.75;;
11962;SDS011;62678;52.130;5.584;2023-05-02T13:18:33;9.23;;;2.78;;
11962;SDS011;62678;52.130;5.584;2023-05-02T13:21:00;11.35;;;2.90;;
11962;SDS011;62678;52.130;5.584;2023-05-02T13:23:26;9.50;;;2.80;;
11962;SDS011;62678;52.130;5.584;2023-05-02T13:25:53;9.13;;;2.63;;
11962;SDS011;62678;52.130;5.584;2023-05-02T13:28:20;6.63;;;2.30;;
11962;SDS011;62678;52.130;5.584;2023-05-02T13:30:47;10.93;;;2.60;;
11962;SDS011;62678;52.130;5.584;2023-05-02T13:33:15;9.05;;;2.50;;
11962;SDS011;62678;52.130;5.584;2023-05-02T13:35:42;9.82;;;2.50;;
11962;SDS011;62678;52.130;5.584;2023-05-02T13:38:08;9.00;;;2.65;;
11962;SDS011;62678;52.130;5.584;2023-05-02T13:40:35;4.35;;;2.13;;
11962;SDS011;62678;52.130;5.584;2023-05-02T13:43:02;8.55;;;2.65;;
11962;SDS011;62678;52.130;5.584;2023-05-02T13:45:29;8.00;;;2.58;;
11962;SDS011;62678;52.130;5.584;2023-05-02T13:47:56;9.45;;;2.58;;
11962;SDS011;62678;52.130;5.584;2023-05-02T13:50:24;7.80;;;2.70;;
11962;SDS011;62678;52.130;5.584;2023-05-02T13:52:51;7.88;;;2.45;;
11962;SDS011;62678;52.130;5.584;2023-05-02T13:55:18;7.53;;;2.10;;
11962;SDS011;62678;52.130;5.584;2023-05-02T13:57:45;7.93;;;2.72;;
11962;SDS011;62678;52.130;5.584;2023-05-02T14:00:12;5.00;;;2.03;;
11962;SDS011;62678;52.130;5.584;2023-05-02T14:02:40;6.00;;;2.30;;
11962;SDS011;62678;52.130;5.584;2023-05-02T14:05:07;8.25;;;2.60;;
11962;SDS011;62678;52.130;5.584;2023-05-02T14:07:35;8.88;;;2.40;;
11962;SDS011;62678;52.130;5.584;2023-05-02T14:10:02;10.23;;;2.65;;
11962;SDS011;62678;52.130;5.584;2023-05-02T14:12:29;10.82;;;2.13;;
11962;SDS011;62678;52.130;5.584;2023-05-02T14:14:56;5.85;;;2.00;;
11962;SDS011;62678;52.130;5.584;2023-05-02T14:17:23;6.75;;;2.20;;
11962;SDS011;62678;52.130;5.584;2023-05-02T14:19:50;6.47;;;2.20;;
11962;SDS011;62678;52.130;5.584;2023-05-02T14:22:17;6.55;;;2.70;;
11962;SDS011;62678;52.130;5.584;2023-05-02T14:24:47;11.27;;;2.97;;
11962;SDS011;62678;52.130;5.584;2023-05-02T14:27:14;9.18;;;2.50;;
11962;SDS011;62678;52.130;5.584;2023-05-02T14:29:43;4.60;;;2.20;;
11962;SDS011;62678;52.130;5.584;2023-05-02T14:32:10;5.47;;;2.10;;
11962;SDS011;62678;52.130;5.584;2023-05-02T14:34:37;4.07;;;1.90;;
11962;SDS011;62678;52.130;5.584;2023-05-02T14:37:04;7.40;;;2.28;;
11962;SDS011;62678;52.130;5.584;2023-05-02T14:39:30;9.25;;;2.58;;
11962;SDS011;62678;52.130;5.584;2023-05-02T14:42:01;5.97;;;2.13;;
11962;SDS011;62678;52.130;5.584;2023-05-02T14:44:28;7.93;;;1.90;;
11962;SDS011;62678;52.130;5.584;2023-05-02T14:46:55;9.38;;;2.13;;
11962;SDS011;62678;52.130;5.584;2023-05-02T14:49:22;7.30;;;2.15;;
11962;SDS011;62678;52.130;5.584;2023-05-02T14:51:49;6.28;;;1.85;;
11962;SDS011;62678;52.130;5.584;2023-05-02T14:54:16;6.18;;;1.85;;
11962;SDS011;62678;52.130;5.584;2023-05-02T14:56:44;7.13;;;1.90;;
11962;SDS011;62678;52.130;5.584;2023-05-02T14:59:12;5.88;;;1.80;;
11962;SDS011;62678;52.130;5.584;2023-05-02T15:01:39;4.50;;;1.77;;
11962;SDS011;62678;52.130;5.584;2023-05-02T15:04:06;4.70;;;1.50;;
11962;SDS011;62678;52.130;5.584;2023-05-02T15:06:32;5.53;;;1.75;;